ミールヌイ の空港の天気 - METARとTAF

Mirny ( UERR / MJZ ) - ロシア ミールヌイ
飛行場実況気象(Metar)
観測時間04/22 01:00 YAKT (04/21 16:00 UTC)
風向・風速西南西 2m/s
視程10km以上
天気現象
なし
気温-7℃
湿度79%
気圧1001hPa
METARUERR 211600Z 24002MPS CAVOK M07/M10 Q1001 R25/CLRD60 NOSIG RMK QFE720
過去の天気等 Google飛行場航空写真 Wunderground天気予報

過去48時間のMETAR

飛行場予報(TAF)
発表時間: 4/21 23:00 YAKT (4/21 14:00 UTC)
予報対象時間: 22日0時 YAKT ~ 23日0時 YAKT
風向・風速西南西 4m/s
視程10km以上
なし
22日3時 YAKT ~ 22日9時 YAKT に一時的に
視程2000m
天気現象もや
全天の4割程度の雲 雲底高度 210m
全天の8割程度の雲 雲底高度 3050m
22日12時 YAKT ~ 22日14時 YAKT に徐々に
風向・風速北西 3m/s 瞬間風速 8m/s
TAF UERR 211400Z 2115/2215 24004MPS CAVOK
TEMPO 2118/2124 2000 BR SCT007 BKN100
BECMG 2203/2205 32003G08MPS